Slavyansk-na-Kubani, Russia
Current Conditions -  °F | °C
As of 7:00 PM on Sunday 23 Nov 2014 (Local Time) from URKA Reporting Station
Clear Clear  
Wind Chill: 21°   Ceiling: Unl
Heat Index: 32°   Visibility: 6mi
Dew Point: 19°   Wind: 18mph
Humidity: 60%   Direction: 50°NE
Pressure: 30.27"   Gusts: NA
Location:  45.25°N, 38.12°E
Report Text: URKA 231600Z 05008MPS CAVOK M00/M07 Q1025 NOSIG RMK QFE765/1020SC070
Loading
Personal Weather Stations






























Interactive Weather Map New forecast layout! Learn more

10-Day Weather Forecast

Advertisements
Track Severe Weather on mobile